createdAt,value
2019-03-18T00:00:48.989Z,16.97
2019-03-18T00:03:19.220Z,16.40
2019-03-18T00:05:49.542Z,20.67
2019-03-18T00:08:19.664Z,13.50
2019-03-18T00:10:49.986Z,15.77
2019-03-18T00:13:20.308Z,17.23
2019-03-18T00:15:50.642Z,14.87
2019-03-18T00:18:20.956Z,14.60
2019-03-18T00:20:51.281Z,16.33
2019-03-18T00:23:21.604Z,15.20
2019-03-18T00:25:51.927Z,15.03
2019-03-18T00:28:22.251Z,13.60
2019-03-18T00:30:52.574Z,13.57
2019-03-18T00:33:22.898Z,13.67
2019-03-18T00:35:53.224Z,18.07
2019-03-18T00:38:23.546Z,16.70
2019-03-18T00:40:53.871Z,15.40
2019-03-18T00:43:25.204Z,19.20
2019-03-18T00:45:55.549Z,19.13
2019-03-18T00:48:26.069Z,19.27
2019-03-18T00:50:56.599Z,15.97
2019-03-18T00:53:26.912Z,21.13
2019-03-18T00:55:57.450Z,17.63
2019-03-18T00:58:28.183Z,18.70
2019-03-18T01:00:58.302Z,15.77
2019-03-18T01:03:28.626Z,19.07
2019-03-18T01:05:58.950Z,15.67
2019-03-18T01:08:29.273Z,14.30
2019-03-18T01:11:00.621Z,18.07
2019-03-18T01:13:31.151Z,19.17
2019-03-18T01:16:02.088Z,15.17
2019-03-18T01:18:32.412Z,16.00
2019-03-18T01:21:02.736Z,15.43
2019-03-18T01:23:33.059Z,12.47
2019-03-18T01:26:03.587Z,14.43
2019-03-18T01:28:34.117Z,13.63
2019-03-18T01:31:04.235Z,14.17
2019-03-18T01:33:35.173Z,10.37
2019-03-18T01:36:05.694Z,12.10
2019-03-18T01:38:36.230Z,12.40
2019-03-18T01:41:06.553Z,10.03
2019-03-18T01:43:36.879Z,11.57
2019-03-18T01:46:07.202Z,11.43
2019-03-18T01:48:37.320Z,11.10
2019-03-18T01:51:07.851Z,9.90
2019-03-18T01:53:38.377Z,11.63
2019-03-18T01:56:08.701Z,11.43
2019-03-18T01:58:39.230Z,12.33
2019-03-18T02:01:09.962Z,11.73
2019-03-18T02:03:40.287Z,12.63
2019-03-18T02:06:10.611Z,16.20
2019-03-18T02:09:00.185Z,12.87
2019-03-18T02:11:30.714Z,13.33
2019-03-18T02:14:01.244Z,12.97
2019-03-18T02:16:31.589Z,15.27
2019-03-18T02:19:01.885Z,13.17
2019-03-18T02:21:32.420Z,20.90
2019-03-18T02:24:02.741Z,14.77
2019-03-18T02:26:33.475Z,13.10
2019-03-18T02:29:04.004Z,14.37
2019-03-18T02:31:34.338Z,18.10
2019-03-18T02:34:04.645Z,13.77
2019-03-18T02:36:34.772Z,14.33
2019-03-18T02:39:06.530Z,13.00
2019-03-18T02:41:37.056Z,13.93
2019-03-18T02:44:07.383Z,14.77
2019-03-18T02:46:37.908Z,15.17
2019-03-18T02:49:08.232Z,12.27
2019-03-18T02:51:38.562Z,16.30
2019-03-18T02:54:08.880Z,15.07
2019-03-18T02:56:40.026Z,12.07
2019-03-18T02:59:10.355Z,15.47
2019-03-18T03:01:40.672Z,12.33
2019-03-18T03:04:10.996Z,14.20
2019-03-18T03:06:41.515Z,18.57
2019-03-18T03:09:12.053Z,15.03
2019-03-18T03:11:42.171Z,11.77
2019-03-18T03:14:12.493Z,13.90
2019-03-18T03:16:43.030Z,14.30
2019-03-18T03:19:13.233Z,13.40
2019-03-18T03:21:43.466Z,15.23
2019-03-18T03:24:13.795Z,12.20
2019-03-18T03:26:44.113Z,10.30
2019-03-18T03:29:14.435Z,16.67
2019-03-18T03:31:44.968Z,12.27
2019-03-18T03:34:15.494Z,13.87
2019-03-18T03:36:45.815Z,9.40
2019-03-18T03:39:16.144Z,14.83
2019-03-18T03:41:46.467Z,12.07
2019-03-18T03:44:16.778Z,12.93
2019-03-18T03:46:46.912Z,8.00
2019-03-18T03:49:17.445Z,12.03
2019-03-18T03:51:48.383Z,10.37
2019-03-18T03:54:18.894Z,12.20
2019-03-18T03:56:49.224Z,14.87
2019-03-18T03:59:19.549Z,10.97
2019-03-18T04:01:49.886Z,12.10
2019-03-18T04:04:20.605Z,14.30
2019-03-18T04:06:50.937Z,10.60
2019-03-18T04:09:21.239Z,11.33
2019-03-18T04:11:51.377Z,9.83
2019-03-18T04:14:22.106Z,11.23
2019-03-18T04:17:01.685Z,14.37
2019-03-18T04:19:24.597Z,17.70
2019-03-18T04:21:54.921Z,13.43
2019-03-18T04:24:25.656Z,12.03
2019-03-18T04:26:55.977Z,12.07
2019-03-18T04:29:26.491Z,11.20
2019-03-18T04:31:56.633Z,13.17
2019-03-18T04:34:27.358Z,13.43
2019-03-18T04:36:57.887Z,11.60
2019-03-18T04:39:28.210Z,9.53
2019-03-18T04:41:58.582Z,10.60
2019-03-18T04:44:29.062Z,11.47
2019-03-18T04:46:59.795Z,12.17
2019-03-18T04:49:30.323Z,7.40
2019-03-18T04:52:00.449Z,8.80
2019-03-18T04:54:30.970Z,11.23
2019-03-18T04:57:01.294Z,12.07
2019-03-18T04:59:31.602Z,14.53
2019-03-18T05:02:01.737Z,7.93
2019-03-18T05:04:32.060Z,7.47
2019-03-18T05:07:02.386Z,9.37
2019-03-18T05:09:36.396Z,9.07
2019-03-18T05:12:06.514Z,12.27
2019-03-18T05:14:37.247Z,8.03
2019-03-18T05:17:07.570Z,7.13
2019-03-18T05:19:37.892Z,7.83
2019-03-18T05:22:08.629Z,7.60
2019-03-18T05:24:38.951Z,7.47
2019-03-18T05:27:09.276Z,7.10
2019-03-18T05:29:39.598Z,8.13
2019-03-18T05:32:09.719Z,7.20
2019-03-18T05:34:39.928Z,7.47
2019-03-18T05:37:10.160Z,7.33
2019-03-18T05:39:40.485Z,11.07
2019-03-18T05:42:10.809Z,14.87
2019-03-18T05:45:00.420Z,15.23
2019-03-18T05:47:39.060Z,15.57
2019-03-18T05:50:03.693Z,13.43
2019-03-18T05:52:34.222Z,12.67
2019-03-18T05:55:05.441Z,10.03
2019-03-18T05:57:35.881Z,8.80
2019-03-18T06:00:13.783Z,9.90
2019-03-18T06:02:46.779Z,10.37
2019-03-18T06:05:34.717Z,9.93
2019-03-18T06:08:05.056Z,12.43
2019-03-18T06:10:54.814Z,10.83
2019-03-18T06:13:24.940Z,17.03
2019-03-18T06:15:55.057Z,12.43
2019-03-18T06:18:26.820Z,8.77
2019-03-18T06:20:57.448Z,14.97
2019-03-18T06:23:28.281Z,13.20
2019-03-18T06:25:58.609Z,10.57
2019-03-18T06:28:28.724Z,18.50
2019-03-18T06:30:59.049Z,7.27
2019-03-18T06:33:29.379Z,11.90
2019-03-18T06:35:59.492Z,9.00
2019-03-18T06:38:29.839Z,13.57
2019-03-18T06:41:00.343Z,15.77
2019-03-18T06:43:30.657Z,13.33
2019-03-18T06:46:00.990Z,12.50
2019-03-18T06:48:31.519Z,9.87
2019-03-18T06:51:02.666Z,11.97
2019-03-18T06:53:33.181Z,9.87
2019-03-18T06:56:03.311Z,11.17
2019-03-18T06:58:33.632Z,13.13
2019-03-18T07:01:04.575Z,9.63
2019-03-18T07:03:36.532Z,10.63
2019-03-18T07:06:07.061Z,13.77
2019-03-18T07:08:37.180Z,11.23
2019-03-18T07:11:07.505Z,11.97
2019-03-18T07:13:37.626Z,15.57
2019-03-18T07:16:07.947Z,13.17
2019-03-18T07:18:38.272Z,10.43
2019-03-18T07:21:08.481Z,12.50
2019-03-18T07:23:38.713Z,10.53
2019-03-18T07:26:10.879Z,9.97
2019-03-18T07:28:41.408Z,13.63
2019-03-18T07:31:11.732Z,15.47
2019-03-18T07:33:43.490Z,10.43
2019-03-18T07:36:13.817Z,12.67
2019-03-18T07:38:44.341Z,10.70
2019-03-18T07:41:14.870Z,16.20
2019-03-18T07:43:44.989Z,12.40
2019-03-18T07:46:17.590Z,12.03
2019-03-18T07:48:51.166Z,14.93
2019-03-18T07:51:21.490Z,14.63
2019-03-18T07:53:51.814Z,16.23
2019-03-18T07:56:22.137Z,13.00
2019-03-18T07:58:52.461Z,13.33
2019-03-18T08:01:23.194Z,11.20
2019-03-18T08:03:53.523Z,12.07
2019-03-18T08:06:23.638Z,13.90
2019-03-18T08:08:54.169Z,13.57
2019-03-18T08:11:43.568Z,20.83
2019-03-18T08:14:15.902Z,11.93
2019-03-18T08:16:47.051Z,11.47
2019-03-18T08:19:17.375Z,13.00
2019-03-18T08:21:47.697Z,15.83
2019-03-18T08:24:19.046Z,13.70
2019-03-18T08:26:49.369Z,15.60
2019-03-18T08:29:19.488Z,13.83
2019-03-18T08:31:49.610Z,16.00
2019-03-18T08:34:19.933Z,14.57
2019-03-18T08:36:50.265Z,15.90
2019-03-18T08:39:21.602Z,18.00
2019-03-18T08:41:51.927Z,19.40
2019-03-18T08:44:22.541Z,12.17
2019-03-18T08:46:52.983Z,15.57
2019-03-18T08:49:23.306Z,13.97
2019-03-18T08:51:53.632Z,14.50
2019-03-18T08:54:24.978Z,13.43
2019-03-18T08:56:55.302Z,13.37
2019-03-18T08:59:25.626Z,17.60
2019-03-18T09:01:57.391Z,12.30
2019-03-18T09:04:27.826Z,14.00
2019-03-18T09:06:58.236Z,16.83
2019-03-18T09:09:28.361Z,17.43
2019-03-18T09:11:58.677Z,14.37
2019-03-18T09:14:29.195Z,18.93
2019-03-18T09:16:59.531Z,15.37
2019-03-18T09:19:29.854Z,12.03
2019-03-18T09:22:00.385Z,14.40
2019-03-18T09:24:31.117Z,12.73
2019-03-18T09:27:02.694Z,13.30
2019-03-18T09:29:33.811Z,9.00
2019-03-18T09:32:05.572Z,12.73
2019-03-18T09:34:36.302Z,16.43
2019-03-18T09:37:06.625Z,12.00
2019-03-18T09:39:37.155Z,13.50
2019-03-18T09:42:07.478Z,13.57
2019-03-18T09:44:37.793Z,11.80
2019-03-18T09:47:07.920Z,10.93
2019-03-18T09:49:38.655Z,12.67
2019-03-18T09:52:10.000Z,13.88
2019-03-18T09:54:41.143Z,12.45
2019-03-18T09:57:11.673Z,10.48
2019-03-18T09:59:41.996Z,12.30
2019-03-18T10:02:12.320Z,14.83
2019-03-18T10:04:42.634Z,9.87
2019-03-18T10:07:12.969Z,16.27
2019-03-18T10:09:45.953Z,14.73
2019-03-18T10:12:17.765Z,19.27
2019-03-18T10:14:48.650Z,10.73
2019-03-18T10:17:18.975Z,17.30
2019-03-18T10:19:48.983Z,13.47
2019-03-18T10:22:19.620Z,11.33
2019-03-18T10:24:49.739Z,10.70
2019-03-18T10:27:19.858Z,15.03
2019-03-18T10:29:50.184Z,12.97
2019-03-18T10:32:20.505Z,20.07
2019-03-18T10:34:51.034Z,12.63
2019-03-18T10:37:21.563Z,11.27
2019-03-18T10:39:51.887Z,13.23
2019-03-18T10:42:22.210Z,10.03
2019-03-18T10:44:52.532Z,16.00
2019-03-18T10:47:23.266Z,10.10
2019-03-18T10:49:53.590Z,12.67
2019-03-18T10:52:23.946Z,14.97
2019-03-18T10:54:54.245Z,15.40
2019-03-18T10:57:24.357Z,10.33
2019-03-18T10:59:54.671Z,15.23
2019-03-18T11:02:24.800Z,12.77
2019-03-18T11:04:55.123Z,13.20
2019-03-18T11:07:25.651Z,12.37
2019-03-18T11:09:55.977Z,14.27
2019-03-18T11:12:26.504Z,11.83
2019-03-18T11:14:57.237Z,17.33
2019-03-18T11:17:27.561Z,12.63
2019-03-18T11:19:58.929Z,11.70
2019-03-18T11:22:30.256Z,18.50
2019-03-18T11:25:00.571Z,18.33
2019-03-18T11:27:30.903Z,12.77
2019-03-18T11:30:01.242Z,11.13
2019-03-18T11:32:31.755Z,12.67
2019-03-18T11:35:02.166Z,10.40
2019-03-18T11:37:33.018Z,11.17
2019-03-18T11:40:03.140Z,7.33
2019-03-18T11:42:33.524Z,11.60
2019-03-18T11:45:07.895Z,11.60
2019-03-18T11:47:36.769Z,8.80
2019-03-18T11:50:11.771Z,9.57
2019-03-18T11:52:42.609Z,12.97
2019-03-18T11:55:17.685Z,12.47
2019-03-18T11:57:47.643Z,10.07
2019-03-18T12:00:18.939Z,18.57
2019-03-18T12:02:48.953Z,15.87
2019-03-18T12:05:23.325Z,19.97
2019-03-18T12:07:53.151Z,14.03
2019-03-18T12:10:25.659Z,14.07
2019-03-18T12:12:54.958Z,14.70
2019-03-18T12:15:30.199Z,14.03
2019-03-18T12:18:00.726Z,13.67
2019-03-18T12:20:33.183Z,24.13
2019-03-18T12:23:03.629Z,15.97
2019-03-18T12:25:34.769Z,15.43
2019-03-18T12:28:05.642Z,21.33
2019-03-18T12:30:36.043Z,23.37
2019-03-18T12:33:05.928Z,13.73
2019-03-18T12:35:35.839Z,12.87
2019-03-18T12:38:05.780Z,15.50
2019-03-18T12:40:35.691Z,29.73
2019-03-18T12:43:07.103Z,11.43
2019-03-18T12:45:37.090Z,19.17
2019-03-18T12:48:07.127Z,14.93
2019-03-18T12:50:54.521Z,12.97
2019-03-18T12:53:08.627Z,16.67
2019-03-18T12:55:39.114Z,23.13
2019-03-18T12:58:09.063Z,12.83
2019-03-18T13:00:39.074Z,14.23
2019-03-18T13:03:09.099Z,18.27
2019-03-18T13:05:39.005Z,18.90
2019-03-18T13:08:09.257Z,17.20
2019-03-18T13:10:39.339Z,17.90
2019-03-18T13:13:10.101Z,14.30
2019-03-18T13:15:41.040Z,22.23
2019-03-18T13:18:11.567Z,20.00
2019-03-18T13:20:41.890Z,19.30
2019-03-18T13:23:12.216Z,17.37
2019-03-18T13:25:42.539Z,18.60
2019-03-18T13:28:12.868Z,19.40
2019-03-18T13:30:43.185Z,18.20
2019-03-18T13:33:13.295Z,14.20
2019-03-18T13:35:43.632Z,15.87
2019-03-18T13:38:13.959Z,19.30
2019-03-18T13:40:45.983Z,14.83
2019-03-18T13:43:16.033Z,17.70
2019-03-18T13:45:55.293Z,14.93
2019-03-18T13:48:19.753Z,18.73
2019-03-18T13:50:50.070Z,12.77
2019-03-18T13:53:20.400Z,17.03
2019-03-18T13:55:50.527Z,15.17
2019-03-18T13:58:20.842Z,15.63
2019-03-18T14:00:51.784Z,17.47
2019-03-18T14:03:21.905Z,13.07
2019-03-18T14:05:52.222Z,14.23
2019-03-18T14:08:22.546Z,21.33
2019-03-18T14:10:52.869Z,19.50
2019-03-18T14:13:22.989Z,14.40
2019-03-18T14:15:53.316Z,23.07
2019-03-18T14:18:23.841Z,15.03
2019-03-18T14:20:53.960Z,22.80
2019-03-18T14:23:24.283Z,14.80
2019-03-18T14:25:54.609Z,10.13
2019-03-18T14:28:24.931Z,11.23
2019-03-18T14:30:55.255Z,11.00
2019-03-18T14:33:25.579Z,12.73
2019-03-18T14:35:55.902Z,20.40
2019-03-18T14:38:26.423Z,12.67
2019-03-18T14:40:56.553Z,12.40
2019-03-18T14:43:27.078Z,16.77
2019-03-18T14:45:57.406Z,12.63
2019-03-18T14:48:27.718Z,13.27
2019-03-18T14:50:58.050Z,14.23
2019-03-18T14:53:28.382Z,13.20
2019-03-18T14:55:59.119Z,11.53
2019-03-18T14:58:29.429Z,12.93
2019-03-18T15:00:59.756Z,12.87
2019-03-18T15:03:30.286Z,13.17
2019-03-18T15:06:00.607Z,14.67
2019-03-18T15:08:30.930Z,15.53
2019-03-18T15:11:01.664Z,8.57
2019-03-18T15:13:31.782Z,9.30
2019-03-18T15:16:02.516Z,8.63
2019-03-18T15:18:32.635Z,11.27
2019-03-18T15:21:02.959Z,12.97
2019-03-18T15:23:33.079Z,7.63
2019-03-18T15:26:05.162Z,14.17
2019-03-18T15:28:35.150Z,11.90
2019-03-18T15:31:05.681Z,20.80
2019-03-18T15:33:35.805Z,19.63
2019-03-18T15:36:06.733Z,12.93
2019-03-18T15:38:37.674Z,15.17
2019-03-18T15:41:08.005Z,15.00
2019-03-18T15:43:38.329Z,15.57
2019-03-18T15:46:08.654Z,13.07
2019-03-18T15:48:38.976Z,19.90
2019-03-18T15:51:09.918Z,21.70
2019-03-18T15:53:40.446Z,26.40
2019-03-18T15:56:12.200Z,18.03
2019-03-18T15:58:43.987Z,21.23
2019-03-18T16:01:14.489Z,21.93
2019-03-18T16:03:44.606Z,14.13
2019-03-18T16:06:15.135Z,19.93
2019-03-18T16:08:45.648Z,17.00
2019-03-18T16:11:15.988Z,25.20
2019-03-18T16:13:46.298Z,22.87
2019-03-18T16:16:16.636Z,14.93
2019-03-18T16:18:47.165Z,16.20
2019-03-18T16:21:17.492Z,15.57
2019-03-18T16:23:48.020Z,22.23
2019-03-18T16:26:18.553Z,19.20
2019-03-18T16:28:48.636Z,20.97
2019-03-18T16:31:18.519Z,18.93
2019-03-18T16:33:48.698Z,22.60
2019-03-18T16:36:19.018Z,23.30
2019-03-18T16:38:49.547Z,40.00
2019-03-18T16:41:19.666Z,24.97
2019-03-18T16:43:49.990Z,18.30
2019-03-18T16:46:20.927Z,11.43
2019-03-18T16:48:51.251Z,14.20
2019-03-18T16:51:21.783Z,9.40
2019-03-18T16:53:52.311Z,15.23
2019-03-18T16:56:22.631Z,14.57
2019-03-18T16:58:53.627Z,15.07
2019-03-18T17:01:24.099Z,15.83
2019-03-18T17:03:54.628Z,13.67
2019-03-18T17:06:24.951Z,17.40
2019-03-18T17:08:55.684Z,17.30
2019-03-18T17:11:26.008Z,15.33
2019-03-18T17:13:56.332Z,20.93
2019-03-18T17:16:28.499Z,15.03
2019-03-18T17:18:58.617Z,21.57
2019-03-18T17:21:28.940Z,22.03
2019-03-18T17:23:59.678Z,20.77
2019-03-18T17:26:31.432Z,24.97
2019-03-18T17:31:37.404Z,23.20
2019-03-18T17:34:07.522Z,18.83
2019-03-18T17:36:37.845Z,28.17
2019-03-18T17:39:08.990Z,21.00
2019-03-18T17:41:39.315Z,26.13
2019-03-18T17:44:09.636Z,18.00
2019-03-18T17:46:39.966Z,19.37
2019-03-18T17:49:10.294Z,28.27
2019-03-18T17:51:40.815Z,19.43
2019-03-18T17:54:11.138Z,22.17
2019-03-18T17:56:41.469Z,17.20
2019-03-18T17:59:11.988Z,19.93
2019-03-18T18:01:42.311Z,19.10
2019-03-18T18:04:12.637Z,19.53
2019-03-18T18:06:43.165Z,19.07
2019-03-18T18:09:13.694Z,21.53
2019-03-18T18:11:44.229Z,13.90
2019-03-18T18:14:14.559Z,14.40
2019-03-18T18:16:44.870Z,15.73
2019-03-18T18:19:15.000Z,12.97
2019-03-18T18:21:45.312Z,16.47
2019-03-18T18:24:15.637Z,10.73
2019-03-18T18:26:47.997Z,14.97
2019-03-18T18:29:18.323Z,14.70
2019-03-18T18:31:50.707Z,10.50
2019-03-18T18:34:21.332Z,13.33
2019-03-18T18:36:51.659Z,14.73
2019-03-18T18:39:23.725Z,15.50
2019-03-18T18:41:54.658Z,17.63
2019-03-18T18:44:24.986Z,14.70
2019-03-18T18:46:55.102Z,12.03
2019-03-18T18:49:25.630Z,16.87
2019-03-18T18:51:56.161Z,17.60
2019-03-18T18:54:26.277Z,17.53
2019-03-18T18:56:56.798Z,16.13
2019-03-18T18:59:26.929Z,15.10
2019-03-18T19:01:58.068Z,15.57
2019-03-18T19:04:28.597Z,15.70
2019-03-18T19:06:58.715Z,13.30
2019-03-18T19:09:29.253Z,16.93
2019-03-18T19:12:00.183Z,15.47
2019-03-18T19:14:31.524Z,11.97
2019-03-18T19:17:02.059Z,11.33
2019-03-18T19:19:32.298Z,12.53
2019-03-18T19:22:03.115Z,12.27
2019-03-18T19:24:34.053Z,11.73
2019-03-18T19:27:04.583Z,13.83
2019-03-18T19:29:36.546Z,15.13
2019-03-18T19:32:06.535Z,11.73
2019-03-18T19:34:37.191Z,13.83
2019-03-18T19:37:07.724Z,15.47
2019-03-18T19:39:38.453Z,20.87
2019-03-18T19:42:10.210Z,14.50
2019-03-18T19:44:40.740Z,13.97
2019-03-18T19:47:12.688Z,18.03
2019-03-18T19:49:44.669Z,18.00
2019-03-18T19:52:15.198Z,15.20
2019-03-18T19:54:45.516Z,14.87
2019-03-18T19:57:15.714Z,14.70
2019-03-18T19:59:46.368Z,15.47
2019-03-18T20:02:17.103Z,14.37
2019-03-18T20:04:47.221Z,14.60
2019-03-18T20:07:17.415Z,16.57
2019-03-18T20:09:47.300Z,16.00
2019-03-18T20:12:17.345Z,12.00
2019-03-18T20:14:47.347Z,16.23
2019-03-18T20:17:17.229Z,19.13
2019-03-18T20:19:47.069Z,17.17
2019-03-18T20:22:16.954Z,19.87
2019-03-18T20:24:47.150Z,18.47
2019-03-18T20:27:17.221Z,23.53
2019-03-18T20:29:47.121Z,18.53
2019-03-18T20:32:17.031Z,17.70
2019-03-18T20:34:46.926Z,18.37
2019-03-18T20:37:16.910Z,20.47
2019-03-18T20:39:47.870Z,20.67
2019-03-18T20:42:18.407Z,23.53
2019-03-18T20:44:48.500Z,20.53
2019-03-18T20:47:18.589Z,19.37
2019-03-18T20:49:48.748Z,25.00
2019-03-18T20:52:18.869Z,20.40
2019-03-18T20:54:49.192Z,15.13
2019-03-18T20:57:19.512Z,18.77
2019-03-18T20:59:49.835Z,16.93
2019-03-18T21:02:23.643Z,15.87
2019-03-18T21:04:53.967Z,13.93
2019-03-18T21:07:24.511Z,14.40
2019-03-18T21:09:55.032Z,18.07
2019-03-18T21:12:25.023Z,22.17
2019-03-18T21:14:55.687Z,20.13
2019-03-18T21:17:26.199Z,19.10
2019-03-18T21:19:56.934Z,27.13
2019-03-18T21:22:27.258Z,23.27
2019-03-18T21:24:57.587Z,28.07
2019-03-18T21:27:28.208Z,40.23
2019-03-18T21:29:58.842Z,48.90
2019-03-18T21:32:29.783Z,42.90
2019-03-18T21:35:01.932Z,40.07
2019-03-18T21:40:32.912Z,44.17
2019-03-18T21:43:03.434Z,48.33
2019-03-18T21:45:34.166Z,36.47
2019-03-18T21:48:04.905Z,40.93
2019-03-18T21:50:35.428Z,28.13
2019-03-18T21:53:05.589Z,31.67
2019-03-18T21:55:36.496Z,42.00
2019-03-18T21:58:07.012Z,29.33
2019-03-18T22:00:37.756Z,32.37
2019-03-18T22:03:08.070Z,29.80
2019-03-18T22:05:38.393Z,31.33
2019-03-18T22:08:08.717Z,33.27
2019-03-18T22:10:39.045Z,27.97
2019-03-18T22:13:09.569Z,30.50
2019-03-18T22:15:39.893Z,28.20
2019-03-18T22:18:10.421Z,27.50
2019-03-18T22:20:40.541Z,21.83
2019-03-18T22:23:10.865Z,18.67
2019-03-18T22:25:41.188Z,22.00
2019-03-18T22:28:12.128Z,17.50
2019-03-18T22:30:42.245Z,19.07
2019-03-18T22:33:12.569Z,21.87
2019-03-18T22:35:42.892Z,20.07
2019-03-18T22:38:13.224Z,13.53
2019-03-18T22:40:43.540Z,18.87
2019-03-18T22:43:13.866Z,13.23
2019-03-18T22:45:43.983Z,12.70
2019-03-18T22:48:26.347Z,12.30
2019-03-18T22:50:56.511Z,10.77
2019-03-18T22:53:26.629Z,8.43
2019-03-18T22:55:58.385Z,9.63
2019-03-18T22:58:28.504Z,11.60
2019-03-18T23:01:12.161Z,11.47
2019-03-18T23:03:42.260Z,8.33
2019-03-18T23:06:12.582Z,10.57
2019-03-18T23:08:42.905Z,9.47
2019-03-18T23:11:13.229Z,11.67
2019-03-18T23:13:43.553Z,4.07
2019-03-18T23:16:13.672Z,3.90
2019-03-18T23:18:44.601Z,3.93
2019-03-18T23:21:14.936Z,4.87
2019-03-18T23:23:45.042Z,3.67
2019-03-18T23:26:15.172Z,6.47
2019-03-18T23:28:45.495Z,5.23
2019-03-18T23:31:16.024Z,3.07
2019-03-18T23:33:46.133Z,3.90
2019-03-18T23:36:16.264Z,8.63
2019-03-18T23:38:46.996Z,4.10
2019-03-18T23:41:17.114Z,4.90
2019-03-18T23:43:47.438Z,3.83
2019-03-18T23:46:17.761Z,4.93
2019-03-18T23:48:48.085Z,3.03
2019-03-18T23:51:18.410Z,7.30
2019-03-18T23:53:48.527Z,7.03
2019-03-18T23:56:18.851Z,13.33
2019-03-18T23:58:49.176Z,4.93
